Time;durP1;ratioP1;P1;durP2;ratioP2;P2;SDS_P1;SDS_P2;PMS_P1;PMS_P2;Temp;Humidity;BMP_temperature;BMP_pressure;BME280_temperature;BME280_humidity;BME280_pressure;Samples;Min_cycle;Max_cycle;Signal;HPM_P1;HPM_P2
2021/06/01 00:00:43;;;;;;;7.67;5.97;;;16.00;1.00;;;;;;5098371;28;20453;-69
2021/06/01 00:03:09;;;;;;;7.00;6.00;;;15.90;1.00;;;;;;5098178;28;20468;-69
2021/06/01 00:05:35;;;;;;;7.90;5.60;;;15.90;1.00;;;;;;5098135;28;20821;-70
2021/06/01 00:08:04;;;;;;;10.00;6.40;;;15.90;1.00;;;;;;5098061;28;20484;-69
2021/06/01 00:10:33;;;;;;;8.40;6.07;;;15.80;1.00;;;;;;5098024;28;20518;-69
2021/06/01 00:13:02;;;;;;;8.97;6.37;;;15.80;1.00;;;;;;5098182;28;20492;-70
2021/06/01 00:15:31;;;;;;;6.67;5.90;;;15.80;1.00;;;;;;5097723;28;20450;-70
2021/06/01 00:18:01;;;;;;;7.93;5.87;;;15.70;1.00;;;;;;5097823;28;20453;-70
2021/06/01 00:20:27;;;;;;;8.60;6.37;;;15.70;1.00;;;;;;5097810;28;20468;-70
2021/06/01 00:22:55;;;;;;;8.07;6.53;;;15.60;1.00;;;;;;5097526;28;20468;-70
2021/06/01 00:25:21;;;;;;;8.80;5.83;;;15.60;17.30;;;;;;5097662;28;20485;-70
2021/06/01 00:27:48;;;;;;;8.07;5.90;;;15.50;56.70;;;;;;5097666;28;20477;-70
2021/06/01 00:30:16;;;;;;;8.23;6.20;;;15.50;80.70;;;;;;5097487;28;20514;-70
2021/06/01 00:32:42;;;;;;;6.97;6.17;;;15.50;91.30;;;;;;5097421;28;20461;-70
2021/06/01 00:35:09;;;;;;;9.03;6.07;;;15.50;73.10;;;;;;5097365;28;20929;-70
2021/06/01 00:37:35;;;;;;;7.77;5.90;;;15.50;66.80;;;;;;5097658;28;20841;-70
2021/06/01 00:40:02;;;;;;;7.17;6.43;;;15.50;92.50;;;;;;5097049;28;20922;-70
2021/06/01 00:42:28;;;;;;;10.87;6.20;;;15.50;99.90;;;;;;5097364;28;20464;-71
2021/06/01 00:44:55;;;;;;;7.87;5.73;;;15.40;99.90;;;;;;5096839;28;20496;-70
2021/06/01 00:47:22;;;;;;;8.40;5.80;;;15.40;99.90;;;;;;5097332;28;20551;-70
2021/06/01 00:49:48;;;;;;;9.10;6.43;;;15.40;99.90;;;;;;5097063;28;20925;-70
2021/06/01 00:52:14;;;;;;;10.00;6.90;;;15.40;99.90;;;;;;5097186;28;20453;-70
2021/06/01 00:54:41;;;;;;;7.57;6.87;;;15.40;99.90;;;;;;5097942;28;20482;-70
2021/06/01 00:57:08;;;;;;;10.80;6.00;;;15.30;99.90;;;;;;5100130;28;20461;-70
2021/06/01 00:59:35;;;;;;;8.90;6.80;;;15.30;99.90;;;;;;5101307;28;20945;-70
2021/06/01 01:02:05;;;;;;;9.30;6.80;;;15.30;99.90;;;;;;5096955;28;20469;-70
2021/06/01 01:04:31;;;;;;;7.97;5.83;;;15.20;99.90;;;;;;5096608;28;20461;-70
2021/06/01 01:07:14;;;;;;;8.37;6.90;;;15.20;99.90;;;;;;5096715;28;20549;-70
2021/06/01 01:09:43;;;;;;;7.13;6.27;;;15.20;99.90;;;;;;5095573;28;20449;-70
2021/06/01 01:12:14;;;;;;;7.63;6.27;;;15.10;99.90;;;;;;5096745;28;20468;-70
2021/06/01 01:14:44;;;;;;;6.50;5.90;;;15.10;99.90;;;;;;5096495;28;20536;-70
2021/06/01 01:17:17;;;;;;;7.50;6.70;;;15.10;99.90;;;;;;5096676;28;20462;-70
2021/06/01 01:20:09;;;;;;;7.70;6.30;;;15.10;99.90;;;;;;5096540;28;20437;-70
2021/06/01 01:22:38;;;;;;;8.33;6.63;;;15.10;99.90;;;;;;5096753;28;20485;-70
2021/06/01 01:25:11;;;;;;;9.13;7.03;;;15.00;1.00;;;;;;5096217;28;20485;-70
2021/06/01 01:27:51;;;;;;;9.97;7.17;;;15.00;1.00;;;;;;5096210;28;20446;-70
2021/06/01 01:30:19;;;;;;;8.90;6.70;;;15.00;99.90;;;;;;5096199;28;20536;-70
2021/06/01 01:32:54;;;;;;;7.70;6.83;;;15.00;99.90;;;;;;5096042;28;20487;-70
2021/06/01 01:35:23;;;;;;;9.43;6.43;;;15.10;99.90;;;;;;5095975;28;20441;-71
2021/06/01 01:37:51;;;;;;;9.13;7.37;;;15.10;99.90;;;;;;5096306;28;20457;-70
2021/06/01 01:40:18;;;;;;;8.90;7.47;;;15.00;1.00;;;;;;5096111;28;20478;-70
2021/06/01 01:42:49;;;;;;;9.20;7.03;;;15.00;1.00;;;;;;5095858;28;20917;-70
2021/06/01 01:45:21;;;;;;;10.00;7.80;;;15.00;1.00;;;;;;5095615;28;20967;-71
2021/06/01 01:50:37;;;;;;;8.03;6.50;;;14.90;1.00;;;;;;5096085;28;20758;-71
2021/06/01 01:53:04;;;;;;;10.33;6.77;;;14.90;1.00;;;;;;5096002;28;20457;-70
2021/06/01 01:55:31;;;;;;;9.77;7.77;;;14.90;1.00;;;;;;5095948;28;20457;-71
2021/06/01 01:57:58;;;;;;;10.27;7.97;;;14.80;1.00;;;;;;5095527;28;20457;-70
2021/06/01 02:00:25;;;;;;;8.70;7.10;;;14.80;1.00;;;;;;5095974;28;20457;-70
2021/06/01 02:02:52;;;;;;;9.83;7.77;;;14.80;1.00;;;;;;5095658;28;20464;-70
2021/06/01 02:05:19;;;;;;;8.50;7.23;;;14.80;15.80;;;;;;5095727;28;20805;-70
2021/06/01 02:07:47;;;;;;;8.83;6.60;;;14.70;99.90;;;;;;5095684;28;20457;-69
2021/06/01 02:10:13;;;;;;;8.63;6.93;;;14.70;99.90;;;;;;5095864;28;20464;-71
2021/06/01 02:12:40;;;;;;;8.37;6.67;;;14.70;99.90;;;;;;5095817;28;20746;-70
2021/06/01 02:15:08;;;;;;;10.40;7.40;;;14.70;99.90;;;;;;5095441;28;20456;-69
2021/06/01 02:17:34;;;;;;;8.33;6.73;;;14.70;99.90;;;;;;5095616;28;20472;-70
2021/06/01 02:20:00;;;;;;;12.20;7.07;;;14.70;99.90;;;;;;5095077;28;20464;-70
2021/06/01 02:25:24;;;;;;;7.43;6.63;;;14.70;99.90;;;;;;5095303;28;20607;-70
2021/06/01 02:27:56;;;;;;;13.37;7.53;;;14.70;99.90;;;;;;5095446;28;20438;-71
2021/06/01 02:30:28;;;;;;;8.43;6.73;;;14.70;99.90;;;;;;5095748;28;20499;-70
2021/06/01 02:32:57;;;;;;;8.07;7.27;;;14.70;1.00;;;;;;5095330;28;20438;-71
2021/06/01 02:35:29;;;;;;;9.40;8.03;;;14.70;1.00;;;;;;5095548;28;20454;-71
2021/06/01 02:38:00;;;;;;;8.27;6.53;;;14.70;99.90;;;;;;5095404;28;20503;-70
2021/06/01 02:40:29;;;;;;;7.20;6.10;;;14.70;99.90;;;;;;5095265;28;20438;-71
2021/06/01 02:42:56;;;;;;;10.70;7.00;;;14.70;99.90;;;;;;5095335;28;20503;-71
2021/06/01 02:45:24;;;;;;;10.13;6.40;;;14.70;99.90;;;;;;5094880;28;20980;-71
2021/06/01 02:47:52;;;;;;;8.73;7.57;;;14.70;99.90;;;;;;5095878;28;20461;-70
2021/06/01 02:50:20;;;;;;;12.53;6.80;;;14.70;99.90;;;;;;5095328;28;20464;-70
2021/06/01 02:52:48;;;;;;;11.73;7.13;;;14.70;1.00;;;;;;5095219;28;20453;-70
2021/06/01 02:55:18;;;;;;;8.10;6.30;;;14.70;1.00;;;;;;5095195;28;20460;-70
2021/06/01 02:57:45;;;;;;;8.97;7.00;;;14.60;1.00;;;;;;5095300;28;20457;-70
2021/06/01 03:00:15;;;;;;;7.53;6.50;;;14.60;1.00;;;;;;5094550;28;20889;-71
2021/06/01 03:02:41;;;;;;;7.20;6.50;;;14.60;1.00;;;;;;5095013;28;20551;-70
2021/06/01 03:05:09;;;;;;;12.60;8.47;;;14.60;99.90;;;;;;5094883;28;20468;-70
2021/06/01 03:07:38;;;;;;;10.90;7.53;;;14.60;99.90;;;;;;5095018;28;20457;-70
2021/06/01 03:10:07;;;;;;;11.30;7.17;;;14.60;99.90;;;;;;5094845;28;20453;-70
2021/06/01 03:12:43;;;;;;;7.83;7.03;;;14.60;99.90;;;;;;5094804;28;20937;-70
2021/06/01 03:15:12;;;;;;;9.07;6.50;;;14.50;99.90;;;;;;5095024;28;20524;-71
2021/06/01 03:17:39;;;;;;;9.37;7.37;;;14.50;1.00;;;;;;5094789;28;20539;-70
2021/06/01 03:20:09;;;;;;;10.60;7.60;;;14.50;1.00;;;;;;5095019;28;20472;-71
2021/06/01 03:22:36;;;;;;;9.20;7.10;;;14.50;1.00;;;;;;5094783;28;20502;-69
2021/06/01 03:25:03;;;;;;;10.63;7.70;;;14.60;1.00;;;;;;5094509;28;20449;-71
2021/06/01 03:27:29;;;;;;;8.17;6.60;;;14.60;1.00;;;;;;5095098;28;20913;-70
2021/06/01 03:29:56;;;;;;;9.30;7.50;;;14.60;19.80;;;;;;5094757;28;20463;-70
2021/06/01 03:32:23;;;;;;;10.20;7.70;;;14.60;3.90;;;;;;5096458;28;20449;-70
2021/06/01 03:34:50;;;;;;;8.30;7.07;;;14.60;3.60;;;;;;5098467;28;20449;-69
2021/06/01 03:37:16;;;;;;;10.20;7.80;;;14.50;99.90;;;;;;5098505;28;20449;-70
2021/06/01 03:39:42;;;;;;;9.70;7.00;;;14.60;1.00;;;;;;5098504;28;20463;-71
2021/06/01 03:42:12;;;;;;;13.70;8.90;;;14.60;1.00;;;;;;5098669;28;20453;-70
2021/06/01 03:44:39;;;;;;;8.70;7.80;;;14.60;1.00;;;;;;5098047;28;20983;-70
2021/06/01 03:47:05;;;;;;;9.30;7.67;;;14.60;1.00;;;;;;5098628;28;20798;-70
2021/06/01 03:49:34;;;;;;;9.17;7.40;;;14.60;1.00;;;;;;5098458;28;20846;-70
2021/06/01 03:52:00;;;;;;;9.43;7.57;;;14.60;15.20;;;;;;5098883;28;20461;-71
2021/06/01 03:54:27;;;;;;;13.73;8.13;;;14.60;1.00;;;;;;5098524;28;20547;-71
2021/06/01 03:56:54;;;;;;;10.53;7.73;;;14.70;1.00;;;;;;5098350;28;20775;-71
2021/06/01 03:59:20;;;;;;;10.27;8.20;;;14.70;1.00;;;;;;5098412;28;20453;-71
2021/06/01 04:01:46;;;;;;;10.83;8.43;;;14.70;1.00;;;;;;5097881;28;20487;-71
2021/06/01 04:04:12;;;;;;;9.90;7.97;;;14.70;99.90;;;;;;5098076;28;20522;-69
2021/06/01 04:06:40;;;;;;;11.20;8.53;;;14.80;1.00;;;;;;5098010;28;20484;-69
2021/06/01 04:09:06;;;;;;;9.53;7.63;;;14.80;99.90;;;;;;5098133;28;20540;-70
2021/06/01 04:11:33;;;;;;;10.00;7.70;;;14.90;1.00;;;;;;5098307;28;20761;-70
2021/06/01 04:13:59;;;;;;;14.47;8.50;;;14.90;1.00;;;;;;5098245;28;20457;-69
2021/06/01 04:16:25;;;;;;;11.37;8.67;;;15.00;1.00;;;;;;5097887;28;20453;-70
2021/06/01 04:18:51;;;;;;;11.77;9.10;;;15.00;1.00;;;;;;5098018;28;20472;-70
2021/06/01 04:21:17;;;;;;;11.00;8.33;;;15.10;90.10;;;;;;5098361;28;20453;-70
2021/06/01 04:23:45;;;;;;;9.10;8.13;;;15.10;39.60;;;;;;5100359;28;20461;-70
2021/06/01 04:26:11;;;;;;;14.20;9.53;;;15.20;1.00;;;;;;5101426;28;20481;-70
2021/06/01 04:28:38;;;;;;;13.73;9.57;;;15.20;1.00;;;;;;5098303;28;20454;-70
2021/06/01 04:31:04;;;;;;;15.37;9.70;;;15.30;53.10;;;;;;5097633;28;20484;-70
2021/06/01 04:33:30;;;;;;;12.30;9.23;;;15.30;1.00;;;;;;5097685;28;20457;-70
2021/06/01 04:35:56;;;;;;;19.50;9.87;;;15.30;18.80;;;;;;5097961;28;20763;-70
2021/06/01 04:38:23;;;;;;;14.87;9.30;;;15.40;1.00;;;;;;5097287;28;20468;-70
2021/06/01 04:40:50;;;;;;;13.10;9.23;;;15.50;1.00;;;;;;5097603;28;20776;-70
2021/06/01 04:43:16;;;;;;;13.90;9.27;;;15.50;1.00;;;;;;5097135;28;20463;-70
2021/06/01 04:45:43;;;;;;;13.93;9.60;;;15.60;99.90;;;;;;5096734;28;21011;-70
2021/06/01 04:48:09;;;;;;;10.90;8.37;;;15.60;99.90;;;;;;5097716;28;20492;-71
2021/06/01 04:50:35;;;;;;;13.27;9.63;;;15.70;99.90;;;;;;5097565;28;20825;-71
2021/06/01 04:53:02;;;;;;;16.27;8.97;;;15.70;1.00;;;;;;5097435;28;20461;-71
2021/06/01 04:55:28;;;;;;;11.63;8.60;;;15.80;1.00;;;;;;5097273;28;20465;-71
2021/06/01 04:57:56;;;;;;;13.87;9.27;;;15.80;1.00;;;;;;5097176;28;20465;-72
2021/06/01 05:00:22;;;;;;;13.53;9.00;;;15.90;1.00;;;;;;5097028;28;20540;-71
2021/06/01 05:02:49;;;;;;;13.03;9.43;;;16.00;1.00;;;;;;5097127;28;20453;-70
2021/06/01 05:05:15;;;;;;;13.17;9.30;;;16.00;1.00;;;;;;5096970;28;20468;-71
2021/06/01 05:07:41;;;;;;;13.80;9.57;;;16.00;1.00;;;;;;5097064;28;20468;-71
2021/06/01 05:10:08;;;;;;;13.60;9.60;;;16.10;1.00;;;;;;5097034;28;20457;-71
2021/06/01 05:12:35;;;;;;;13.53;8.63;;;16.10;99.90;;;;;;5096850;28;20821;-71
2021/06/01 05:15:03;;;;;;;11.90;8.77;;;16.20;99.90;;;;;;5096916;28;20457;-71
2021/06/01 05:17:30;;;;;;;15.97;9.27;;;16.20;99.90;;;;;;5096399;28;20472;-71
2021/06/01 05:19:56;;;;;;;13.93;8.53;;;16.20;99.90;;;;;;5096895;28;20457;-71
2021/06/01 05:22:22;;;;;;;13.93;8.53;;;16.30;99.90;;;;;;5097217;28;20461;-72
2021/06/01 05:24:49;;;;;;;16.33;8.97;;;16.30;99.90;;;;;;5096922;28;20975;-71
2021/06/01 05:27:15;;;;;;;14.27;10.40;;;16.40;99.90;;;;;;5096705;28;20512;-71
2021/06/01 05:29:45;;;;;;;15.27;9.63;;;16.40;92.20;;;;;;5096546;28;20526;-71
2021/06/01 05:35:18;;;;;;;16.47;10.53;;;16.40;41.60;;;;;;5093320;27;20549;-70
2021/06/01 05:37:47;;;;;;;25.37;10.67;;;16.40;88.10;;;;;;5092627;28;20490;-71
2021/06/01 05:40:14;;;;;;;19.17;10.20;;;16.40;99.90;;;;;;5092751;28;20449;-70
2021/06/01 05:42:40;;;;;;;17.13;10.20;;;16.40;99.90;;;;;;5092424;28;20449;-71
2021/06/01 05:45:07;;;;;;;18.90;10.60;;;16.40;99.90;;;;;;5092477;28;20453;-71
2021/06/01 05:47:34;;;;;;;16.93;11.20;;;16.50;99.90;;;;;;5092773;28;20449;-71
2021/06/01 05:50:02;;;;;;;14.37;9.77;;;16.50;99.90;;;;;;5092505;28;20820;-71
2021/06/01 05:52:30;;;;;;;17.97;10.20;;;16.60;99.90;;;;;;5092273;28;20458;-72
2021/06/01 05:54:57;;;;;;;19.07;10.87;;;16.60;99.90;;;;;;5092560;28;20534;-72
2021/06/01 05:57:23;;;;;;;18.37;9.87;;;16.70;99.90;;;;;;5092477;28;20453;-71
2021/06/01 05:59:49;;;;;;;15.80;9.50;;;16.70;15.80;;;;;;5092506;28;20458;-72
2021/06/01 06:02:15;;;;;;;18.10;10.40;;;16.80;1.00;;;;;;5092599;28;20457;-72
2021/06/01 06:04:41;;;;;;;15.47;9.93;;;16.90;1.00;;;;;;5094999;28;20476;-72
2021/06/01 06:07:07;;;;;;;15.00;8.90;;;16.90;1.00;;;;;;5094047;28;20466;-72
2021/06/01 06:09:35;;;;;;;14.40;8.70;;;17.00;1.00;;;;;;5093191;28;20457;-72
2021/06/01 06:12:01;;;;;;;12.87;9.60;;;17.10;1.00;;;;;;5092405;28;20484;-72
2021/06/01 06:14:27;;;;;;;13.93;9.20;;;17.20;1.00;;;;;;5091876;28;20977;-72
2021/06/01 06:16:56;;;;;;;12.03;8.63;;;17.30;1.00;;;;;;5091647;28;20457;-72
2021/06/01 06:19:23;;;;;;;14.53;8.57;;;17.40;1.00;;;;;;5095131;28;20786;-72
2021/06/01 06:21:49;;;;;;;9.53;7.57;;;17.40;1.00;;;;;;5095478;28;20453;-72
2021/06/01 06:24:15;;;;;;;13.53;8.73;;;17.50;1.00;;;;;;5094391;28;20449;-71
2021/06/01 06:26:45;;;;;;;10.93;7.50;;;17.50;1.00;;;;;;5095509;28;20457;-71
2021/06/01 06:29:11;;;;;;;12.50;8.57;;;17.60;1.00;;;;;;5093343;28;20449;-71
2021/06/01 06:31:39;;;;;;;8.73;7.63;;;17.70;1.00;;;;;;5093335;28;20922;-71
2021/06/01 06:34:05;;;;;;;13.43;7.13;;;17.70;1.00;;;;;;5092690;28;20485;-71
2021/06/01 06:36:31;;;;;;;9.73;8.40;;;17.80;1.00;;;;;;5093352;28;20453;-71
2021/06/01 06:38:57;;;;;;;14.13;8.00;;;17.80;1.00;;;;;;5092386;28;20564;-71
2021/06/01 06:41:27;;;;;;;10.80;7.97;;;17.90;1.00;;;;;;5094287;28;20457;-71
2021/06/01 06:43:54;;;;;;;10.13;7.30;;;18.00;1.00;;;;;;5092504;28;20828;-71
2021/06/01 06:46:25;;;;;;;9.33;8.30;;;18.10;1.00;;;;;;5079933;28;20454;-72
2021/06/01 06:48:51;;;;;;;12.37;8.13;;;18.20;1.00;;;;;;5078772;28;20453;-73
2021/06/01 06:51:17;;;;;;;10.67;7.90;;;18.30;1.00;;;;;;5079482;28;20461;-72
2021/06/01 06:53:51;;;;;;;9.80;7.30;;;18.50;1.00;;;;;;5077735;28;20478;-72
2021/06/01 06:56:20;;;;;;;10.43;7.70;;;18.60;99.90;;;;;;5078018;28;20449;-72
2021/06/01 06:58:47;;;;;;;9.33;6.80;;;18.60;99.90;;;;;;5077963;28;20454;-72
2021/06/01 07:01:14;;;;;;;10.70;7.40;;;18.70;99.90;;;;;;5077864;28;20469;-71
2021/06/01 07:03:41;;;;;;;10.60;7.53;;;18.80;99.90;;;;;;5077511;28;20460;-71
2021/06/01 07:06:08;;;;;;;9.10;5.70;;;19.00;99.90;;;;;;5077908;28;20462;-72
2021/06/01 07:08:35;;;;;;;11.90;7.30;;;19.10;99.90;;;;;;5077204;28;21006;-73
2021/06/01 07:11:01;;;;;;;9.50;6.80;;;19.30;99.90;;;;;;5077734;28;20512;-72
2021/06/01 07:13:36;;;;;;;9.03;6.87;;;19.50;99.90;;;;;;5078213;28;20478;-72
2021/06/01 07:16:04;;;;;;;10.17;6.67;;;19.70;99.90;;;;;;5078024;28;20438;-72
2021/06/01 07:18:34;;;;;;;7.63;5.90;;;19.90;99.90;;;;;;5077698;28;20882;-72
2021/06/01 07:21:01;;;;;;;9.20;5.93;;;20.10;99.90;;;;;;5077890;28;20439;-72
2021/06/01 07:23:27;;;;;;;6.73;5.93;;;20.20;99.90;;;;;;5082501;28;20457;-71
2021/06/01 07:25:54;;;;;;;10.70;5.87;;;20.30;99.90;;;;;;5078737;28;20458;-71
2021/06/01 07:28:20;;;;;;;8.30;6.07;;;20.50;99.90;;;;;;5078151;28;20469;-71
2021/06/01 07:30:46;;;;;;;7.60;6.63;;;20.60;99.90;;;;;;5077159;28;20462;-73
2021/06/01 07:33:13;;;;;;;6.97;5.60;;;20.60;99.90;;;;;;5077018;28;20811;-72
2021/06/01 07:35:41;;;;;;;9.13;6.17;;;20.80;99.90;;;;;;5077098;28;20612;-71
2021/06/01 07:38:10;;;;;;;10.20;5.43;;;20.80;94.10;;;;;;5077365;28;20533;-72
2021/06/01 07:40:36;;;;;;;9.33;5.83;;;20.80;52.60;;;;;;5077406;28;20450;-71
2021/06/01 07:43:02;;;;;;;8.00;5.77;;;20.70;8.70;;;;;;5088085;28;20527;-71
2021/06/01 07:45:29;;;;;;;4.87;4.37;;;20.60;10.40;;;;;;5077357;28;20531;-71
2021/06/01 07:47:55;;;;;;;6.97;4.97;;;20.60;5.20;;;;;;5077137;28;20469;-71
2021/06/01 07:50:22;;;;;;;7.73;5.77;;;20.60;1.00;;;;;;5077214;28;20462;-71
2021/06/01 07:52:49;;;;;;;5.90;5.27;;;20.70;1.00;;;;;;5076913;28;20485;-71
2021/06/01 07:55:16;;;;;;;8.60;5.27;;;20.70;1.00;;;;;;5077608;28;20547;-72
2021/06/01 07:57:42;;;;;;;5.63;5.13;;;20.60;1.00;;;;;;5078545;28;20458;-72
2021/06/01 08:00:11;;;;;;;5.67;4.83;;;20.60;1.00;;;;;;5080257;28;20454;-72
2021/06/01 08:02:38;;;;;;;11.73;6.07;;;20.60;1.00;;;;;;5076391;28;20492;-73
2021/06/01 08:05:08;;;;;;;9.90;5.40;;;20.60;1.00;;;;;;5076915;28;20802;-72
2021/06/01 08:07:37;;;;;;;6.93;4.57;;;20.60;1.00;;;;;;5076696;28;20434;-72
2021/06/01 08:10:06;;;;;;;6.40;4.57;;;20.50;1.00;;;;;;5077192;28;20465;-73
2021/06/01 08:12:34;;;;;;;6.50;4.47;;;20.50;1.00;;;;;;5076364;28;20465;-73
2021/06/01 08:15:00;;;;;;;4.80;4.40;;;20.50;1.00;;;;;;5076337;28;20478;-71
2021/06/01 08:17:27;;;;;;;7.13;4.83;;;20.60;1.00;;;;;;5076415;28;20531;-71
2021/06/01 08:19:55;;;;;;;7.10;4.40;;;20.60;1.00;;;;;;5076086;28;20455;-71
2021/06/01 08:22:31;;;;;;;4.30;3.70;;;20.80;1.00;;;;;;5076268;28;20457;-71
2021/06/01 08:24:58;;;;;;;4.87;3.80;;;20.80;1.00;;;;;;5076774;28;20465;-71
2021/06/01 08:27:27;;;;;;;4.93;4.03;;;21.00;1.00;;;;;;5076118;28;20473;-70
2021/06/01 08:29:54;;;;;;;4.73;3.63;;;21.10;1.00;;;;;;5075795;28;20454;-71
2021/06/01 08:32:20;;;;;;;6.20;4.67;;;21.20;1.00;;;;;;5078867;28;20458;-70
2021/06/01 08:34:50;;;;;;;6.30;5.07;;;21.20;1.00;;;;;;5077371;28;20544;-71
2021/06/01 08:37:20;;;;;;;4.40;4.00;;;21.30;1.00;;;;;;5079563;28;20450;-70
2021/06/01 08:39:47;;;;;;;4.70;4.20;;;21.40;1.00;;;;;;5079965;28;20535;-71
2021/06/01 08:42:17;;;;;;;6.40;4.40;;;21.50;1.00;;;;;;5079482;28;20458;-70
2021/06/01 08:44:48;;;;;;;6.20;4.53;;;21.60;1.00;;;;;;5078701;28;20447;-70
2021/06/01 08:47:18;;;;;;;5.40;4.30;;;21.70;1.00;;;;;;5078685;28;20516;-70
2021/06/01 08:49:46;;;;;;;5.40;4.90;;;21.60;1.00;;;;;;5079986;28;20490;-71
2021/06/01 08:52:15;;;;;;;6.37;4.73;;;21.70;1.00;;;;;;5079587;28;20782;-73
2021/06/01 08:54:42;;;;;;;5.00;4.50;;;21.70;1.00;;;;;;5076199;28;20481;-71
2021/06/01 08:57:09;;;;;;;5.33;4.83;;;21.70;1.00;;;;;;5075875;28;20462;-72
2021/06/01 08:59:40;;;;;;;6.43;4.60;;;21.70;1.00;;;;;;5077268;28;20492;-73
2021/06/01 09:02:10;;;;;;;6.73;4.97;;;21.70;1.00;;;;;;5080872;28;20458;-72
2021/06/01 09:04:50;;;;;;;8.63;4.90;;;21.70;1.00;;;;;;5080481;28;20512;-71
2021/06/01 09:07:24;;;;;;;6.50;5.00;;;21.70;1.00;;;;;;5079991;28;20442;-70
2021/06/01 09:10:18;;;;;;;4.83;4.33;;;21.70;1.00;;;;;;5080441;28;20477;-71
2021/06/01 09:13:24;;;;;;;5.90;5.23;;;21.60;1.00;;;;;;5079278;28;20879;-71
2021/06/01 09:21:36;;;;;;;4.50;4.10;;;21.90;1.00;;;;;;5076714;28;20456;-70
2021/06/01 09:24:05;;;;;;;6.30;4.50;;;22.10;1.00;;;;;;5075487;28;20514;-70
2021/06/01 09:26:44;;;;;;;5.43;4.30;;;22.20;1.00;;;;;;5078572;28;20534;-70
2021/06/01 09:29:14;;;;;;;4.63;3.40;;;22.40;1.00;;;;;;5077830;28;20485;-70
2021/06/01 09:31:41;;;;;;;4.30;4.00;;;22.60;1.00;;;;;;5077617;28;20498;-70
2021/06/01 09:34:24;;;;;;;3.97;3.63;;;22.70;1.00;;;;;;5079083;28;20539;-71
2021/06/01 09:36:53;;;;;;;8.07;3.87;;;22.90;1.00;;;;;;5079962;28;20488;-72
2021/06/01 09:39:24;;;;;;;4.20;3.80;;;23.20;1.00;;;;;;5078920;28;20520;-71
2021/06/01 09:41:50;;;;;;;3.50;2.87;;;23.30;1.00;;;;;;5076393;28;20447;-72
2021/06/01 09:44:17;;;;;;;3.27;2.97;;;23.30;1.00;;;;;;5075832;28;20780;-70
2021/06/01 09:46:46;;;;;;;5.80;3.57;;;23.50;1.00;;;;;;5075193;28;20453;-71
2021/06/01 09:49:22;;;;;;;4.43;3.10;;;23.60;1.00;;;;;;5076459;28;20468;-72
2021/06/01 09:51:53;;;;;;;3.60;3.30;;;23.80;1.00;;;;;;5076391;28;20458;-72
2021/06/01 09:54:32;;;;;;;3.60;3.30;;;23.80;1.00;;;;;;5081970;28;20492;-71
2021/06/01 09:57:00;;;;;;;2.60;2.40;;;23.70;1.00;;;;;;5080725;28;20887;-71
2021/06/01 09:59:26;;;;;;;4.20;2.40;;;23.70;1.00;;;;;;5075322;28;20458;-72
2021/06/01 10:01:54;;;;;;;2.77;2.30;;;23.80;1.00;;;;;;5076054;28;20511;-71
2021/06/01 10:04:26;;;;;;;3.43;2.50;;;23.90;1.00;;;;;;5076686;28;20459;-71
2021/06/01 10:06:54;;;;;;;3.67;2.50;;;24.00;1.00;;;;;;5080566;28;20485;-69
2021/06/01 10:09:20;;;;;;;3.80;2.13;;;24.10;1.00;;;;;;5075929;28;20454;-70
2021/06/01 10:11:57;;;;;;;3.37;2.83;;;23.90;1.00;;;;;;5075615;28;20979;-70
2021/06/01 10:14:26;;;;;;;4.47;2.60;;;23.90;1.00;;;;;;5075490;28;20473;-69
2021/06/01 10:16:54;;;;;;;4.00;2.87;;;23.90;1.00;;;;;;5074946;28;20926;-71
2021/06/01 10:19:20;;;;;;;3.13;2.50;;;23.80;1.00;;;;;;5074843;28;20468;-73
2021/06/01 10:21:53;;;;;;;3.07;2.13;;;23.80;1.00;;;;;;5078380;28;20930;-70
2021/06/01 10:24:19;;;;;;;2.53;2.10;;;23.90;1.00;;;;;;5078454;28;20448;-70
2021/06/01 10:26:46;;;;;;;2.60;2.40;;;23.90;1.00;;;;;;5078993;28;20910;-71
2021/06/01 10:29:15;;;;;;;2.77;2.57;;;23.90;1.00;;;;;;5080486;28;20450;-70
2021/06/01 10:31:43;;;;;;;5.93;2.33;;;23.90;1.00;;;;;;5078403;28;20949;-70
2021/06/01 10:34:13;;;;;;;2.53;2.33;;;23.80;1.00;;;;;;5078208;28;20555;-71
2021/06/01 10:42:35;;;;;;;3.07;2.40;;;24.30;1.00;;;;;;5079373;28;20530;-70
2021/06/01 10:51:00;;;;;;;3.50;3.20;;;25.10;1.00;;;;;;5080079;28;20433;-71
2021/06/01 10:53:37;;;;;;;3.33;3.07;;;25.30;1.00;;;;;;5079773;28;20519;-70
2021/06/01 10:56:06;;;;;;;3.30;3.03;;;25.40;1.00;;;;;;5078122;28;20499;-70
2021/06/01 11:01:56;;;;;;;3.70;3.40;;;25.50;1.00;;;;;;5080682;28;20854;-70
2021/06/01 11:04:25;;;;;;;3.60;3.30;;;25.60;1.00;;;;;;5086675;28;20733;-71
2021/06/01 11:07:39;;;;;;;2.80;2.60;;;25.80;1.00;;;;;;5083376;28;20985;-69
2021/06/01 11:10:06;;;;;;;3.00;2.70;;;26.00;1.00;;;;;;5079379;28;20454;-70
2021/06/01 11:12:45;;;;;;;4.57;3.27;;;26.10;1.00;;;;;;5089777;28;20465;-70
2021/06/01 11:15:35;;;;;;;2.63;2.43;;;26.30;1.00;;;;;;5089004;28;20496;-69
2021/06/01 11:18:26;;;;;;;3.00;2.70;;;26.40;1.00;;;;;;5087533;28;20463;-69
2021/06/01 11:21:12;;;;;;;2.50;2.30;;;26.30;1.00;;;;;;5091296;28;20929;-69
2021/06/01 11:33:14;;;;;;;3.20;2.70;;;26.40;1.00;;;;;;5087404;28;20492;-69
2021/06/01 11:35:43;;;;;;;2.30;2.10;;;26.70;1.00;;;;;;5086506;28;20474;-70
2021/06/01 11:43:53;;;;;;;2.60;2.40;;;27.80;1.00;;;;;;5084172;28;20518;-69
2021/06/01 11:46:32;;;;;;;2.70;2.50;;;28.20;1.00;;;;;;5082215;28;20484;-69
2021/06/01 11:51:44;;;;;;;4.07;2.40;;;28.40;1.00;;;;;;5087061;28;20452;-70
2021/06/01 11:54:13;;;;;;;2.83;2.17;;;28.40;1.00;;;;;;5088090;28;20478;-69
2021/06/01 11:56:48;;;;;;;2.70;2.50;;;28.20;1.00;;;;;;5085494;28;20454;-68
2021/06/01 12:02:07;;;;;;;6.03;2.50;;;27.80;1.00;;;;;;5084834;28;20511;-70
2021/06/01 12:04:48;;;;;;;2.90;2.70;;;27.70;1.00;;;;;;5086910;28;20445;-70
2021/06/01 12:12:53;;;;;;;3.20;2.50;;;29.20;1.00;;;;;;5086339;28;20437;-70
2021/06/01 12:18:16;;;;;;;2.13;2.03;;;30.60;1.00;;;;;;5087201;28;20480;-71
2021/06/01 12:20:43;;;;;;;2.60;2.40;;;30.90;1.00;;;;;;5087954;28;20466;-71
2021/06/01 12:23:40;;;;;;;2.53;2.33;;;30.90;1.00;;;;;;5087717;28;20464;-71
2021/06/01 12:26:13;;;;;;;2.27;1.83;;;30.90;1.00;;;;;;5045384;28;20455;-70
2021/06/01 12:31:52;;;;;;;2.20;2.00;;;30.90;1.00;;;;;;5085618;28;20910;-70
2021/06/01 12:34:24;;;;;;;4.90;2.43;;;31.20;1.00;;;;;;5084143;28;20486;-71
2021/06/01 12:42:44;;;;;;;2.50;2.30;;;31.20;1.00;;;;;;5084507;28;20430;-70
2021/06/01 12:45:53;;;;;;;2.87;2.03;;;31.60;1.00;;;;;;5083458;28;20455;-70
2021/06/01 13:09:44;;;;;;;2.23;1.60;;;31.00;1.00;;;;;;5051548;28;20442;-70
2021/06/01 13:20:50;;;;;;;3.10;1.30;;;33.80;1.00;;;;;;5049176;28;20522;-69
2021/06/01 13:32:08;;;;;;;2.97;2.07;;;33.40;1.00;;;;;;5081785;28;20425;-70
2021/06/01 13:37:44;;;;;;;1.63;1.27;;;33.50;1.00;;;;;;5080019;28;20433;-69
2021/06/01 13:40:18;;;;;;;4.97;1.60;;;33.40;1.00;;;;;;5079404;28;20450;-69
2021/06/01 13:48:44;;;;;;;2.00;1.40;;;32.60;1.00;;;;;;5079299;28;20434;-69
2021/06/01 13:51:27;;;;;;;2.00;1.80;;;32.40;1.00;;;;;;5081236;28;20890;-69
2021/06/01 13:56:37;;;;;;;1.17;0.90;;;32.10;1.00;;;;;;5078980;28;20428;-70
2021/06/01 13:59:09;;;;;;;1.40;0.90;;;31.90;1.00;;;;;;5082903;28;20465;-69
2021/06/01 14:01:54;;;;;;;1.43;1.10;;;31.80;1.00;;;;;;5083203;28;20439;-68
2021/06/01 14:10:13;;;;;;;1.40;1.00;;;32.50;1.00;;;;;;5079795;28;20422;-70
2021/06/01 14:15:38;;;;;;;2.60;1.20;;;32.50;1.00;;;;;;5078924;28;20849;-70
2021/06/01 14:21:08;;;;;;;1.97;1.50;;;31.50;1.00;;;;;;5042832;28;20449;-70
2021/06/01 14:32:11;;;;;;;3.00;1.20;;;29.60;1.00;;;;;;5079686;28;20445;-69
2021/06/01 14:37:54;;;;;;;1.73;1.50;;;28.70;1.00;;;;;;5079541;28;20434;-68
2021/06/01 14:54:42;;;;;;;2.80;1.60;;;28.50;1.00;;;;;;5080395;28;20443;-69
2021/06/01 14:55:16;;;;;;;3.33;1.33;;;28.50;1.00;;;;;;5043423;28;20957;-69
2021/06/01 15:50:18;;;;;;;3.40;2.53;;;26.20;1.00;;;;;;5077085;28;20468;-70
2021/06/01 16:13:12;;;;;;;2.97;2.60;;;24.40;1.00;;;;;;5077423;28;20594;-70
2021/06/01 16:21:27;;;;;;;3.77;2.97;;;23.90;1.00;;;;;;5076833;28;20429;-70
2021/06/01 16:29:43;;;;;;;4.17;3.17;;;23.70;1.00;;;;;;5076326;28;20480;-70
2021/06/01 16:32:23;;;;;;;4.20;2.67;;;23.60;1.00;;;;;;5075826;28;20442;-69
2021/06/01 17:05:31;;;;;;;3.37;2.80;;;22.40;1.00;;;;;;5075434;28;20449;-69
2021/06/01 17:11:14;;;;;;;3.53;3.23;;;22.50;1.00;;;;;;5059617;28;20445;-69
2021/06/01 17:13:45;;;;;;;5.60;3.50;;;22.70;1.00;;;;;;5075484;28;20822;-70
2021/06/01 17:16:18;;;;;;;4.63;3.60;;;22.90;1.00;;;;;;5074871;28;20509;-69
2021/06/01 17:35:33;;;;;;;6.03;5.00;;;23.00;1.00;;;;;;5076271;28;20496;-69
2021/06/01 17:38:01;;;;;;;4.67;4.20;;;22.90;1.00;;;;;;5075430;28;20466;-68
2021/06/01 17:40:28;;;;;;;5.37;4.57;;;22.80;1.00;;;;;;5074520;28;20454;-69
2021/06/01 17:43:00;;;;;;;9.13;4.93;;;22.70;1.00;;;;;;5074863;28;20531;-69
2021/06/01 17:45:27;;;;;;;6.97;5.40;;;22.60;1.00;;;;;;5074605;28;20434;-69
2021/06/01 17:47:58;;;;;;;6.97;5.00;;;22.50;1.00;;;;;;5074559;28;20806;-69
2021/06/01 17:50:25;;;;;;;6.87;4.90;;;22.40;1.00;;;;;;5074322;28;20447;-69